KMIW/MIW METAR and TAF weather

Enter ICAO airport designator
Station Type Date Time Source
KMIW METAR 2019/10/21 05:53 UTC NOAA

KMIW 210553Z AUTO 08008KT 10SM -RA BKN032 BKN080 OVC095 10/08 A2962 RMK AO2 LTG DSNT SW SLP031 P0000 60001 T01000083 10128 20100 401780011 56047 $


Station Type Date Time Source
KMIW Decoded METAR 2019/10/21 05:53 UTC NOAA

MARSHALLTOWN MUNICIPAL AIRPORT , IA, United States (KMIW) 42-07N 92-55W 296M
Oct 21, 2019 - 01:53 AM EDT / 2019.10.21 0553 UTC
Wind: from the E (080 degrees) at 9 MPH (8 KT):0
Visibility: 10 mile(s):0
Sky conditions: overcast
Weather: light rain; Lightning observed
Precipitation last hour: A trace
Temperature: 50.0 F (10.0 C)
Dew Point: 46.9 F (8.3 C)
Relative Humidity: 89%
Pressure (altimeter): 29.62 in. Hg (1003 hPa)
Pressure tendency: 0.14 inches (4.7 hPa) lower than three hours ago
ob: KMIW 210553Z AUTO 08008KT 10SM -RA BKN032 BKN080 OVC095 10/08 A2962 RMK AO2 LTG DSNT SW SLP031 P0000 60001 T01000083 10128 20100 401780011 56047
cycle: 6

Station Type Date Time Source
KMIW TAF UTC NOAA

Error!

Example: see airport list